sensor_id;sensor_type;location;lat;lon;timestamp;pressure;altitude;pressure_sealevel;temperature;humidity
36932;BME280;22847;42.654;23.370;2023-10-08T00:00:43;95127.94;;;15.98;41.85
36932;BME280;22847;42.654;23.370;2023-10-08T00:03:15;95090.00;;;15.52;42.05
36932;BME280;22847;42.654;23.370;2023-10-08T00:05:42;95121.03;;;15.73;42.61
36932;BME280;22847;42.654;23.370;2023-10-08T00:08:08;94993.88;;;15.09;42.74
36932;BME280;22847;42.654;23.370;2023-10-08T00:10:38;95090.47;;;15.80;41.68
36932;BME280;22847;42.654;23.370;2023-10-08T00:13:07;95109.03;;;15.94;41.41
36932;BME280;22847;42.654;23.370;2023-10-08T00:15:35;95089.97;;;15.92;41.63
36932;BME280;22847;42.654;23.370;2023-10-08T00:18:03;95051.53;;;15.67;42.27
36932;BME280;22847;42.654;23.370;2023-10-08T00:20:31;95098.19;;;15.97;41.40
36932;BME280;22847;42.654;23.370;2023-10-08T00:23:03;95101.44;;;15.99;41.62
36932;BME280;22847;42.654;23.370;2023-10-08T00:25:33;95086.69;;;15.82;41.73
36932;BME280;22847;42.654;23.370;2023-10-08T00:27:59;95095.56;;;15.81;41.92
36932;BME280;22847;42.654;23.370;2023-10-08T00:30:27;94958.78;;;14.86;41.90
36932;BME280;22847;42.654;23.370;2023-10-08T00:32:52;95120.38;;;15.79;42.10
36932;BME280;22847;42.654;23.370;2023-10-08T00:35:18;95101.00;;;15.80;42.45
36932;BME280;22847;42.654;23.370;2023-10-08T00:37:46;95092.31;;;15.71;42.60
36932;BME280;22847;42.654;23.370;2023-10-08T00:40:13;95106.19;;;15.23;44.07
36932;BME280;22847;42.654;23.370;2023-10-08T00:42:44;94941.66;;;14.49;43.93
36932;BME280;22847;42.654;23.370;2023-10-08T00:45:11;95056.47;;;15.30;43.18
36932;BME280;22847;42.654;23.370;2023-10-08T00:47:40;95069.44;;;15.39;43.06
36932;BME280;22847;42.654;23.370;2023-10-08T00:50:12;95078.16;;;15.64;42.58
36932;BME280;22847;42.654;23.370;2023-10-08T00:52:47;95074.38;;;15.58;42.44
36932;BME280;22847;42.654;23.370;2023-10-08T00:55:35;95064.81;;;15.33;42.26
36932;BME280;22847;42.654;23.370;2023-10-08T00:58:01;94936.75;;;14.62;42.26
36932;BME280;22847;42.654;23.370;2023-10-08T01:00:37;94853.84;;;14.19;42.72
36932;BME280;22847;42.654;23.370;2023-10-08T01:10:38;95026.22;;;15.09;nan
36932;BME280;22847;42.654;23.370;2023-10-08T01:13:05;94938.88;;;14.51;nan
36932;BME280;22847;42.654;23.370;2023-10-08T01:15:36;95081.56;;;15.24;nan
36932;BME280;22847;42.654;23.370;2023-10-08T01:18:03;95066.44;;;15.18;nan
36932;BME280;22847;42.654;23.370;2023-10-08T01:20:31;95055.09;;;15.09;nan
36932;BME280;22847;42.654;23.370;2023-10-08T01:23:08;95067.25;;;15.02;nan
36932;BME280;22847;42.654;23.370;2023-10-08T01:25:44;95074.66;;;14.99;nan
36932;BME280;22847;42.654;23.370;2023-10-08T01:28:28;95026.22;;;14.85;nan
36932;BME280;22847;42.654;23.370;2023-10-08T01:31:00;95072.38;;;15.04;nan
36932;BME280;22847;42.654;23.370;2023-10-08T01:33:29;95039.59;;;14.58;nan
36932;BME280;22847;42.654;23.370;2023-10-08T01:35:57;95072.31;;;14.80;nan
36932;BME280;22847;42.654;23.370;2023-10-08T01:38:29;95074.59;;;14.91;nan
36932;BME280;22847;42.654;23.370;2023-10-08T01:40:56;94922.25;;;13.76;nan
36932;BME280;22847;42.654;23.370;2023-10-08T01:43:22;94905.25;;;13.88;nan
36932;BME280;22847;42.654;23.370;2023-10-08T01:45:48;94933.81;;;13.99;nan
36932;BME280;22847;42.654;23.370;2023-10-08T01:48:15;95049.16;;;14.75;nan
36932;BME280;22847;42.654;23.370;2023-10-08T01:50:46;95065.84;;;14.58;nan
36932;BME280;22847;42.654;23.370;2023-10-08T01:53:13;95081.13;;;14.62;nan
36932;BME280;22847;42.654;23.370;2023-10-08T01:55:40;95052.88;;;14.56;nan
36932;BME280;22847;42.654;23.370;2023-10-08T01:58:15;95077.72;;;14.86;nan
36932;BME280;22847;42.654;23.370;2023-10-08T02:00:45;94974.84;;;14.24;nan
36932;BME280;22847;42.654;23.370;2023-10-08T02:03:12;94944.00;;;14.18;nan
36932;BME280;22847;42.654;23.370;2023-10-08T02:05:42;95081.03;;;14.96;nan
36932;BME280;22847;42.654;23.370;2023-10-08T02:08:09;95103.31;;;14.84;nan
36932;BME280;22847;42.654;23.370;2023-10-08T02:10:34;95066.69;;;14.74;nan
36932;BME280;22847;42.654;23.370;2023-10-08T02:13:01;94928.81;;;13.88;nan
36932;BME280;22847;42.654;23.370;2023-10-08T02:15:27;95023.50;;;14.45;nan
36932;BME280;22847;42.654;23.370;2023-10-08T02:17:52;95103.44;;;14.66;nan
36932;BME280;22847;42.654;23.370;2023-10-08T02:20:20;94917.53;;;13.88;nan
36932;BME280;22847;42.654;23.370;2023-10-08T02:22:47;94918.81;;;13.83;nan
36932;BME280;22847;42.654;23.370;2023-10-08T02:25:14;95034.03;;;14.61;nan
36932;BME280;22847;42.654;23.370;2023-10-08T02:27:40;94908.22;;;14.01;nan
36932;BME280;22847;42.654;23.370;2023-10-08T02:30:07;95052.31;;;14.95;nan
36932;BME280;22847;42.654;23.370;2023-10-08T02:32:35;95021.25;;;14.74;nan
36932;BME280;22847;42.654;23.370;2023-10-08T02:35:02;95028.66;;;14.79;nan
36932;BME280;22847;42.654;23.370;2023-10-08T02:37:28;95090.34;;;14.83;nan
36932;BME280;22847;42.654;23.370;2023-10-08T02:39:53;95065.53;;;14.69;nan
36932;BME280;22847;42.654;23.370;2023-10-08T02:42:20;95026.13;;;14.53;nan
36932;BME280;22847;42.654;23.370;2023-10-08T02:44:47;95029.94;;;14.58;nan
36932;BME280;22847;42.654;23.370;2023-10-08T02:47:12;95041.25;;;14.67;nan
36932;BME280;22847;42.654;23.370;2023-10-08T02:49:38;94898.50;;;13.77;nan
36932;BME280;22847;42.654;23.370;2023-10-08T02:52:07;95053.59;;;14.83;nan
36932;BME280;22847;42.654;23.370;2023-10-08T02:54:37;94910.22;;;13.65;nan
36932;BME280;22847;42.654;23.370;2023-10-08T02:57:03;94909.66;;;13.88;nan
36932;BME280;22847;42.654;23.370;2023-10-08T02:59:31;95069.53;;;14.81;nan
36932;BME280;22847;42.654;23.370;2023-10-08T03:02:07;95064.34;;;14.63;nan
36932;BME280;22847;42.654;23.370;2023-10-08T03:04:41;95060.00;;;14.80;nan
36932;BME280;22847;42.654;23.370;2023-10-08T03:07:07;95067.53;;;14.83;nan
36932;BME280;22847;42.654;23.370;2023-10-08T03:09:37;95068.34;;;14.76;nan
36932;BME280;22847;42.654;23.370;2023-10-08T03:12:07;95036.78;;;14.59;nan
36932;BME280;22847;42.654;23.370;2023-10-08T03:14:35;95042.56;;;14.63;nan
36932;BME280;22847;42.654;23.370;2023-10-08T03:17:13;95049.63;;;14.70;nan
36932;BME280;22847;42.654;23.370;2023-10-08T03:19:45;95077.69;;;14.70;nan
36932;BME280;22847;42.654;23.370;2023-10-08T03:22:10;95078.66;;;14.69;nan
36932;BME280;22847;42.654;23.370;2023-10-08T03:24:37;94948.72;;;13.99;nan
36932;BME280;22847;42.654;23.370;2023-10-08T03:27:04;95057.94;;;14.50;nan
36932;BME280;22847;42.654;23.370;2023-10-08T03:29:46;94955.91;;;13.97;nan
36932;BME280;22847;42.654;23.370;2023-10-08T03:32:13;95021.94;;;14.34;nan
36932;BME280;22847;42.654;23.370;2023-10-08T03:34:47;95051.88;;;14.49;nan
36932;BME280;22847;42.654;23.370;2023-10-08T03:37:14;94900.69;;;13.56;nan
36932;BME280;22847;42.654;23.370;2023-10-08T03:39:47;94903.66;;;13.61;nan
36932;BME280;22847;42.654;23.370;2023-10-08T03:42:23;95057.84;;;14.34;nan
36932;BME280;22847;42.654;23.370;2023-10-08T03:44:52;95065.75;;;14.42;nan
36932;BME280;22847;42.654;23.370;2023-10-08T03:47:19;94933.81;;;13.65;nan
36932;BME280;22847;42.654;23.370;2023-10-08T03:49:50;95039.72;;;14.40;nan
36932;BME280;22847;42.654;23.370;2023-10-08T03:52:20;94949.28;;;13.76;nan
36932;BME280;22847;42.654;23.370;2023-10-08T03:54:51;95012.88;;;14.20;nan
36932;BME280;22847;42.654;23.370;2023-10-08T03:57:35;95041.59;;;14.30;nan
36932;BME280;22847;42.654;23.370;2023-10-08T04:00:14;95030.84;;;14.41;nan
36932;BME280;22847;42.654;23.370;2023-10-08T04:03:00;95017.16;;;14.29;nan
36932;BME280;22847;42.654;23.370;2023-10-08T04:05:34;95026.88;;;14.37;nan
36932;BME280;22847;42.654;23.370;2023-10-08T04:08:15;94913.84;;;13.64;nan
36932;BME280;22847;42.654;23.370;2023-10-08T04:10:50;94999.94;;;14.27;nan
36932;BME280;22847;42.654;23.370;2023-10-08T04:13:38;95019.53;;;14.41;nan
36932;BME280;22847;42.654;23.370;2023-10-08T04:16:10;95023.22;;;14.30;nan
36932;BME280;22847;42.654;23.370;2023-10-08T04:18:35;95001.97;;;13.99;nan
36932;BME280;22847;42.654;23.370;2023-10-08T04:21:06;95033.56;;;13.98;nan
36932;BME280;22847;42.654;23.370;2023-10-08T04:23:40;95033.44;;;13.99;nan
36932;BME280;22847;42.654;23.370;2023-10-08T04:26:09;95016.03;;;13.98;nan
36932;BME280;22847;42.654;23.370;2023-10-08T04:28:35;95039.50;;;14.00;nan
36932;BME280;22847;42.654;23.370;2023-10-08T04:31:01;95020.84;;;14.11;nan
36932;BME280;22847;42.654;23.370;2023-10-08T04:33:41;94995.56;;;14.02;nan
36932;BME280;22847;42.654;23.370;2023-10-08T04:36:07;94869.78;;;13.26;nan
36932;BME280;22847;42.654;23.370;2023-10-08T04:38:33;95007.22;;;13.99;nan
36932;BME280;22847;42.654;23.370;2023-10-08T04:41:05;95021.06;;;14.17;nan
36932;BME280;22847;42.654;23.370;2023-10-08T04:43:35;95027.41;;;14.07;nan
36932;BME280;22847;42.654;23.370;2023-10-08T04:46:03;95029.75;;;14.18;nan
36932;BME280;22847;42.654;23.370;2023-10-08T04:48:48;94981.00;;;13.99;nan
36932;BME280;22847;42.654;23.370;2023-10-08T04:51:17;94881.31;;;13.41;nan
36932;BME280;22847;42.654;23.370;2023-10-08T04:53:43;94886.84;;;13.38;nan
36932;BME280;22847;42.654;23.370;2023-10-08T04:56:12;95040.78;;;14.29;nan
36932;BME280;22847;42.654;23.370;2023-10-08T04:58:46;94900.00;;;13.46;nan
36932;BME280;22847;42.654;23.370;2023-10-08T05:01:13;94879.31;;;13.35;nan
36932;BME280;22847;42.654;23.370;2023-10-08T05:03:52;95030.13;;;14.31;nan
36932;BME280;22847;42.654;23.370;2023-10-08T05:06:23;95030.91;;;14.23;nan
36932;BME280;22847;42.654;23.370;2023-10-08T05:09:13;94906.00;;;13.38;nan
36932;BME280;22847;42.654;23.370;2023-10-08T05:11:48;95046.13;;;14.20;nan
36932;BME280;22847;42.654;23.370;2023-10-08T05:14:18;94993.16;;;13.74;nan
36932;BME280;22847;42.654;23.370;2023-10-08T05:17:04;95069.56;;;14.13;nan
36932;BME280;22847;42.654;23.370;2023-10-08T05:19:41;95043.19;;;14.23;nan
36932;BME280;22847;42.654;23.370;2023-10-08T05:22:10;95003.66;;;13.82;nan
36932;BME280;22847;42.654;23.370;2023-10-08T05:24:48;95049.13;;;14.25;nan
36932;BME280;22847;42.654;23.370;2023-10-08T05:27:36;94910.47;;;13.46;nan
36932;BME280;22847;42.654;23.370;2023-10-08T05:30:04;95051.94;;;14.32;nan
36932;BME280;22847;42.654;23.370;2023-10-08T05:32:44;95056.78;;;14.44;nan
36932;BME280;22847;42.654;23.370;2023-10-08T05:35:28;95053.22;;;14.69;nan
36932;BME280;22847;42.654;23.370;2023-10-08T05:38:21;95046.94;;;17.48;nan
36932;BME280;22847;42.654;23.370;2023-10-08T05:40:53;94917.84;;;20.24;nan
36932;BME280;22847;42.654;23.370;2023-10-08T05:43:28;95013.84;;;24.09;nan
36932;BME280;22847;42.654;23.370;2023-10-08T05:46:14;95008.72;;;26.93;nan
36932;BME280;22847;42.654;23.370;2023-10-08T05:48:51;95046.25;;;28.61;nan
36932;BME280;22847;42.654;23.370;2023-10-08T05:51:34;95027.97;;;30.26;nan
36932;BME280;22847;42.654;23.370;2023-10-08T05:54:22;95009.41;;;31.23;nan
36932;BME280;22847;42.654;23.370;2023-10-08T05:59:30;95047.34;;;32.70;nan
36932;BME280;22847;42.654;23.370;2023-10-08T06:02:04;94939.44;;;32.14;nan
36932;BME280;22847;42.654;23.370;2023-10-08T06:04:31;95015.97;;;32.94;nan
36932;BME280;22847;42.654;23.370;2023-10-08T06:07:17;95014.34;;;32.93;nan
36932;BME280;22847;42.654;23.370;2023-10-08T06:09:58;95037.94;;;32.12;nan
36932;BME280;22847;42.654;23.370;2023-10-08T06:12:49;95004.56;;;31.25;nan
36932;BME280;22847;42.654;23.370;2023-10-08T06:15:26;94948.19;;;30.09;nan
36932;BME280;22847;42.654;23.370;2023-10-08T06:18:10;94907.34;;;29.44;nan
36932;BME280;22847;42.654;23.370;2023-10-08T06:20:36;95011.78;;;29.13;nan
36932;BME280;22847;42.654;23.370;2023-10-08T06:23:04;95017.97;;;28.37;nan
36932;BME280;22847;42.654;23.370;2023-10-08T06:25:33;94951.69;;;27.49;nan
36932;BME280;22847;42.654;23.370;2023-10-08T06:28:10;95042.97;;;27.47;nan
36932;BME280;22847;42.654;23.370;2023-10-08T06:30:35;94973.94;;;26.81;nan
36932;BME280;22847;42.654;23.370;2023-10-08T06:33:01;95028.25;;;27.05;nan
36932;BME280;22847;42.654;23.370;2023-10-08T06:35:26;94905.94;;;25.56;nan
36932;BME280;22847;42.654;23.370;2023-10-08T06:37:53;95029.34;;;25.88;nan
36932;BME280;22847;42.654;23.370;2023-10-08T06:40:25;95030.19;;;25.58;nan
36932;BME280;22847;42.654;23.370;2023-10-08T06:43:03;95015.97;;;25.46;nan
36932;BME280;22847;42.654;23.370;2023-10-08T06:45:37;95022.94;;;25.47;nan
36932;BME280;22847;42.654;23.370;2023-10-08T06:48:05;94895.88;;;24.57;nan
36932;BME280;22847;42.654;23.370;2023-10-08T06:50:32;95003.72;;;24.97;nan
36932;BME280;22847;42.654;23.370;2023-10-08T06:53:04;94984.13;;;24.85;nan
36932;BME280;22847;42.654;23.370;2023-10-08T06:55:35;95009.91;;;25.09;nan
36932;BME280;22847;42.654;23.370;2023-10-08T06:58:02;94896.63;;;24.45;nan
36932;BME280;22847;42.654;23.370;2023-10-08T07:00:35;94992.84;;;25.10;nan
36932;BME280;22847;42.654;23.370;2023-10-08T07:03:08;95022.94;;;25.17;nan
36932;BME280;22847;42.654;23.370;2023-10-08T07:05:36;95001.25;;;24.77;nan
36932;BME280;22847;42.654;23.370;2023-10-08T07:08:07;94999.00;;;24.44;nan
36932;BME280;22847;42.654;23.370;2023-10-08T07:10:33;95025.34;;;24.71;nan
36932;BME280;22847;42.654;23.370;2023-10-08T07:13:02;94910.69;;;23.98;nan
36932;BME280;22847;42.654;23.370;2023-10-08T07:15:29;94975.66;;;23.97;nan
36932;BME280;22847;42.654;23.370;2023-10-08T07:17:56;95019.22;;;24.27;nan
36932;BME280;22847;42.654;23.370;2023-10-08T07:20:22;95010.31;;;24.40;nan
36932;BME280;22847;42.654;23.370;2023-10-08T07:22:48;95014.06;;;24.69;nan
36932;BME280;22847;42.654;23.370;2023-10-08T07:25:22;94988.59;;;24.91;nan
36932;BME280;22847;42.654;23.370;2023-10-08T07:27:48;95019.88;;;24.66;nan
36932;BME280;22847;42.654;23.370;2023-10-08T07:30:14;94976.91;;;23.94;nan
36932;BME280;22847;42.654;23.370;2023-10-08T07:32:52;95018.84;;;24.67;nan
36932;BME280;22847;42.654;23.370;2023-10-08T07:35:20;95010.59;;;24.50;nan
36932;BME280;22847;42.654;23.370;2023-10-08T07:37:45;94977.34;;;24.53;nan
36932;BME280;22847;42.654;23.370;2023-10-08T07:40:13;94988.03;;;24.89;nan
36932;BME280;22847;42.654;23.370;2023-10-08T07:42:39;94986.66;;;24.80;nan
36932;BME280;22847;42.654;23.370;2023-10-08T07:45:05;94999.41;;;24.78;nan
36932;BME280;22847;42.654;23.370;2023-10-08T07:47:30;94993.03;;;24.79;nan
36932;BME280;22847;42.654;23.370;2023-10-08T07:49:56;94998.94;;;24.99;nan
36932;BME280;22847;42.654;23.370;2023-10-08T07:52:24;94821.94;;;24.34;nan
36932;BME280;22847;42.654;23.370;2023-10-08T07:54:49;94984.81;;;25.28;nan
36932;BME280;22847;42.654;23.370;2023-10-08T07:57:16;94963.84;;;25.14;nan
36932;BME280;22847;42.654;23.370;2023-10-08T07:59:51;94969.34;;;24.71;nan
36932;BME280;22847;42.654;23.370;2023-10-08T08:02:20;94981.50;;;24.30;nan
36932;BME280;22847;42.654;23.370;2023-10-08T08:04:52;94945.78;;;24.50;nan
36932;BME280;22847;42.654;23.370;2023-10-08T08:07:19;94951.09;;;24.68;nan
36932;BME280;22847;42.654;23.370;2023-10-08T08:09:45;94961.66;;;25.11;nan
36932;BME280;22847;42.654;23.370;2023-10-08T08:12:21;94939.19;;;25.30;nan
36932;BME280;22847;42.654;23.370;2023-10-08T08:14:47;94831.13;;;24.20;nan
36932;BME280;22847;42.654;23.370;2023-10-08T08:17:14;94940.28;;;24.81;nan
36932;BME280;22847;42.654;23.370;2023-10-08T08:19:44;94852.38;;;24.86;nan
36932;BME280;22847;42.654;23.370;2023-10-08T08:22:13;94947.81;;;25.44;nan
36932;BME280;22847;42.654;23.370;2023-10-08T08:24:46;94882.88;;;25.31;nan
36932;BME280;22847;42.654;23.370;2023-10-08T08:27:12;94932.69;;;26.02;nan
36932;BME280;22847;42.654;23.370;2023-10-08T08:29:52;94920.47;;;25.83;nan
36932;BME280;22847;42.654;23.370;2023-10-08T08:32:22;94928.13;;;25.56;nan
36932;BME280;22847;42.654;23.370;2023-10-08T08:34:48;94898.63;;;25.10;nan
36932;BME280;22847;42.654;23.370;2023-10-08T08:37:19;94894.31;;;24.97;nan
36932;BME280;22847;42.654;23.370;2023-10-08T08:39:48;94826.22;;;24.65;nan
36932;BME280;22847;42.654;23.370;2023-10-08T08:42:13;94806.44;;;24.84;nan
36932;BME280;22847;42.654;23.370;2023-10-08T08:44:43;94861.41;;;25.26;nan
36932;BME280;22847;42.654;23.370;2023-10-08T08:47:14;94913.66;;;25.46;nan
36932;BME280;22847;42.654;23.370;2023-10-08T08:49:46;94907.63;;;25.39;nan
36932;BME280;22847;42.654;23.370;2023-10-08T08:52:13;94899.28;;;25.47;nan
36932;BME280;22847;42.654;23.370;2023-10-08T08:54:42;94767.03;;;24.86;nan
36932;BME280;22847;42.654;23.370;2023-10-08T08:57:08;94910.94;;;25.64;nan
36932;BME280;22847;42.654;23.370;2023-10-08T08:59:42;94885.81;;;25.42;nan
36932;BME280;22847;42.654;23.370;2023-10-08T09:02:11;94891.72;;;25.32;nan
36932;BME280;22847;42.654;23.370;2023-10-08T09:04:39;94892.41;;;25.27;nan
36932;BME280;22847;42.654;23.370;2023-10-08T09:07:05;94880.91;;;25.15;nan
36932;BME280;22847;42.654;23.370;2023-10-08T09:09:32;94887.00;;;25.04;nan
36932;BME280;22847;42.654;23.370;2023-10-08T09:11:58;94900.13;;;24.94;nan
36932;BME280;22847;42.654;23.370;2023-10-08T09:14:25;94903.06;;;24.86;nan
36932;BME280;22847;42.654;23.370;2023-10-08T09:16:55;94895.84;;;24.75;nan
36932;BME280;22847;42.654;23.370;2023-10-08T09:19:21;94906.44;;;24.63;nan
36932;BME280;22847;42.654;23.370;2023-10-08T09:22:05;94900.06;;;24.34;nan
36932;BME280;22847;42.654;23.370;2023-10-08T09:24:33;94758.53;;;23.33;nan
36932;BME280;22847;42.654;23.370;2023-10-08T09:27:00;94815.75;;;23.85;nan
36932;BME280;22847;42.654;23.370;2023-10-08T09:29:25;94815.78;;;24.15;nan
36932;BME280;22847;42.654;23.370;2023-10-08T09:31:59;94884.72;;;25.19;nan
36932;BME280;22847;42.654;23.370;2023-10-08T09:34:30;94762.47;;;24.75;nan
36932;BME280;22847;42.654;23.370;2023-10-08T09:36:57;94846.50;;;25.60;nan
36932;BME280;22847;42.654;23.370;2023-10-08T09:39:25;94872.38;;;25.71;nan
36932;BME280;22847;42.654;23.370;2023-10-08T09:41:55;94873.66;;;25.81;nan
36932;BME280;22847;42.654;23.370;2023-10-08T09:44:22;94846.59;;;25.77;nan
36932;BME280;22847;42.654;23.370;2023-10-08T09:46:54;94866.44;;;25.93;nan
36932;BME280;22847;42.654;23.370;2023-10-08T09:49:31;94819.56;;;25.62;nan
36932;BME280;22847;42.654;23.370;2023-10-08T09:52:00;94849.16;;;25.84;nan
36932;BME280;22847;42.654;23.370;2023-10-08T09:54:31;94846.25;;;25.73;nan
36932;BME280;22847;42.654;23.370;2023-10-08T09:57:03;94872.72;;;25.87;nan
36932;BME280;22847;42.654;23.370;2023-10-08T09:59:33;94748.00;;;25.17;nan
36932;BME280;22847;42.654;23.370;2023-10-08T10:02:00;94869.25;;;25.63;nan
36932;BME280;22847;42.654;23.370;2023-10-08T10:04:26;94844.97;;;25.53;nan
36932;BME280;22847;42.654;23.370;2023-10-08T10:06:56;94819.41;;;25.33;nan
36932;BME280;22847;42.654;23.370;2023-10-08T10:09:25;94834.41;;;25.58;nan
36932;BME280;22847;42.654;23.370;2023-10-08T10:11:54;94816.63;;;25.52;nan
36932;BME280;22847;42.654;23.370;2023-10-08T10:14:23;94829.53;;;25.66;nan
36932;BME280;22847;42.654;23.370;2023-10-08T10:17:09;94838.25;;;25.62;nan
36932;BME280;22847;42.654;23.370;2023-10-08T10:19:36;94760.91;;;24.97;nan
36932;BME280;22847;42.654;23.370;2023-10-08T10:22:01;94829.50;;;25.43;nan
36932;BME280;22847;42.654;23.370;2023-10-08T10:24:33;94840.34;;;25.60;nan
36932;BME280;22847;42.654;23.370;2023-10-08T10:27:13;94798.41;;;25.60;nan
36932;BME280;22847;42.654;23.370;2023-10-08T10:29:41;94839.03;;;25.86;nan
36932;BME280;22847;42.654;23.370;2023-10-08T10:32:10;94812.66;;;25.89;nan
36932;BME280;22847;42.654;23.370;2023-10-08T10:34:39;94699.50;;;25.32;nan
36932;BME280;22847;42.654;23.370;2023-10-08T10:37:04;94813.41;;;26.13;nan
36932;BME280;22847;42.654;23.370;2023-10-08T10:39:55;94801.56;;;26.09;nan
36932;BME280;22847;42.654;23.370;2023-10-08T10:42:23;94718.22;;;25.20;nan
36932;BME280;22847;42.654;23.370;2023-10-08T10:44:52;94804.44;;;25.67;nan
36932;BME280;22847;42.654;23.370;2023-10-08T10:47:19;94796.41;;;25.79;nan
36932;BME280;22847;42.654;23.370;2023-10-08T10:49:51;94788.16;;;25.92;nan
36932;BME280;22847;42.654;23.370;2023-10-08T10:52:17;94782.97;;;26.14;nan
36932;BME280;22847;42.654;23.370;2023-10-08T10:55:06;94795.16;;;26.22;nan
36932;BME280;22847;42.654;23.370;2023-10-08T10:57:44;94783.03;;;26.31;nan
36932;BME280;22847;42.654;23.370;2023-10-08T11:00:10;94767.16;;;26.24;nan
36932;BME280;22847;42.654;23.370;2023-10-08T11:02:59;94769.28;;;26.10;nan
36932;BME280;22847;42.654;23.370;2023-10-08T11:05:48;94743.97;;;25.90;nan
36932;BME280;22847;42.654;23.370;2023-10-08T11:08:16;94792.50;;;26.10;nan
36932;BME280;22847;42.654;23.370;2023-10-08T11:10:43;94657.03;;;25.30;nan
36932;BME280;22847;42.654;23.370;2023-10-08T11:13:15;94794.47;;;26.14;nan
36932;BME280;22847;42.654;23.370;2023-10-08T11:15:42;94660.50;;;25.43;nan
36932;BME280;22847;42.654;23.370;2023-10-08T11:18:15;94738.03;;;25.99;nan
36932;BME280;22847;42.654;23.370;2023-10-08T11:20:41;94682.25;;;25.74;nan
36932;BME280;22847;42.654;23.370;2023-10-08T11:23:10;94757.59;;;26.28;nan
36932;BME280;22847;42.654;23.370;2023-10-08T11:25:58;94756.41;;;26.36;nan
36932;BME280;22847;42.654;23.370;2023-10-08T11:28:34;94756.97;;;26.38;nan
36932;BME280;22847;42.654;23.370;2023-10-08T11:31:06;94751.66;;;26.54;nan
36932;BME280;22847;42.654;23.370;2023-10-08T11:33:39;94656.19;;;25.82;nan
36932;BME280;22847;42.654;23.370;2023-10-08T11:36:07;94721.72;;;26.12;nan
36932;BME280;22847;42.654;23.370;2023-10-08T11:38:46;94610.69;;;25.37;nan
36932;BME280;22847;42.654;23.370;2023-10-08T11:41:17;94751.69;;;26.14;nan
36932;BME280;22847;42.654;23.370;2023-10-08T11:43:55;94761.34;;;26.15;nan
36932;BME280;22847;42.654;23.370;2023-10-08T11:46:25;94753.94;;;26.06;nan
36932;BME280;22847;42.654;23.370;2023-10-08T11:48:52;94753.78;;;25.84;nan
36932;BME280;22847;42.654;23.370;2023-10-08T11:51:17;94722.22;;;25.69;nan
36932;BME280;22847;42.654;23.370;2023-10-08T11:53:44;94747.47;;;25.90;nan
36932;BME280;22847;42.654;23.370;2023-10-08T11:56:12;94765.50;;;25.83;nan
36932;BME280;22847;42.654;23.370;2023-10-08T11:58:41;94665.19;;;25.12;nan
36932;BME280;22847;42.654;23.370;2023-10-08T12:01:12;94761.25;;;25.47;nan
36932;BME280;22847;42.654;23.370;2023-10-08T12:03:44;94593.84;;;24.50;nan
36932;BME280;22847;42.654;23.370;2023-10-08T12:06:13;94676.00;;;24.94;nan
36932;BME280;22847;42.654;23.370;2023-10-08T12:08:44;94720.06;;;25.08;nan
36932;BME280;22847;42.654;23.370;2023-10-08T12:11:15;94740.97;;;25.11;nan
36932;BME280;22847;42.654;23.370;2023-10-08T12:13:41;94742.00;;;25.10;nan
36932;BME280;22847;42.654;23.370;2023-10-08T12:16:18;94739.69;;;25.25;nan
36932;BME280;22847;42.654;23.370;2023-10-08T12:18:46;94718.44;;;25.30;nan
36932;BME280;22847;42.654;23.370;2023-10-08T12:21:14;94708.22;;;25.27;nan
36932;BME280;22847;42.654;23.370;2023-10-08T12:23:41;94737.22;;;25.59;nan
36932;BME280;22847;42.654;23.370;2023-10-08T12:26:12;94732.03;;;25.81;nan
36932;BME280;22847;42.654;23.370;2023-10-08T12:28:41;94734.50;;;25.82;nan
36932;BME280;22847;42.654;23.370;2023-10-08T12:31:09;94730.63;;;25.90;nan
36932;BME280;22847;42.654;23.370;2023-10-08T12:33:35;94719.31;;;25.71;nan
36932;BME280;22847;42.654;23.370;2023-10-08T12:36:01;94742.19;;;25.79;nan
36932;BME280;22847;42.654;23.370;2023-10-08T12:38:36;94726.31;;;25.60;nan
36932;BME280;22847;42.654;23.370;2023-10-08T12:41:02;94742.09;;;25.62;nan
36932;BME280;22847;42.654;23.370;2023-10-08T12:43:40;94746.50;;;25.45;nan
36932;BME280;22847;42.654;23.370;2023-10-08T12:46:08;94600.13;;;24.43;nan
36932;BME280;22847;42.654;23.370;2023-10-08T12:48:41;94758.13;;;25.27;nan
36932;BME280;22847;42.654;23.370;2023-10-08T12:51:09;94706.81;;;25.13;nan
36932;BME280;22847;42.654;23.370;2023-10-08T12:53:36;94616.81;;;24.74;nan
36932;BME280;22847;42.654;23.370;2023-10-08T12:56:06;94730.03;;;25.36;nan
36932;BME280;22847;42.654;23.370;2023-10-08T12:58:34;94725.75;;;25.23;nan
36932;BME280;22847;42.654;23.370;2023-10-08T13:01:16;94705.22;;;24.89;nan
36932;BME280;22847;42.654;23.370;2023-10-08T13:03:46;94725.06;;;25.05;nan
36932;BME280;22847;42.654;23.370;2023-10-08T13:06:19;94698.59;;;24.92;nan
36932;BME280;22847;42.654;23.370;2023-10-08T13:08:51;94739.22;;;25.05;nan
36932;BME280;22847;42.654;23.370;2023-10-08T13:11:21;94728.75;;;25.04;nan
36932;BME280;22847;42.654;23.370;2023-10-08T13:13:53;94602.69;;;24.38;nan
36932;BME280;22847;42.654;23.370;2023-10-08T13:16:22;94711.94;;;25.15;nan
36932;BME280;22847;42.654;23.370;2023-10-08T13:18:49;94697.44;;;25.11;nan
36932;BME280;22847;42.654;23.370;2023-10-08T13:21:15;94715.19;;;25.28;nan
36932;BME280;22847;42.654;23.370;2023-10-08T13:23:41;94678.50;;;25.24;nan
36932;BME280;22847;42.654;23.370;2023-10-08T13:26:07;94699.84;;;25.36;nan
36932;BME280;22847;42.654;23.370;2023-10-08T13:28:36;94710.19;;;25.32;nan
36932;BME280;22847;42.654;23.370;2023-10-08T13:31:03;94730.53;;;25.21;nan
36932;BME280;22847;42.654;23.370;2023-10-08T13:33:41;94571.97;;;24.36;nan
36932;BME280;22847;42.654;23.370;2023-10-08T13:36:11;94706.81;;;25.13;nan
36932;BME280;22847;42.654;23.370;2023-10-08T13:38:39;94699.97;;;25.29;nan